EmailTwitter


Surface observations / United Kingdom / EGLC

Regions: Quebec | Canada | USA | Europe | France | UK | Elsewhere
Station
Display
Info & Location for EGLC | Help decoding METAR

Weather Conditions observed on 2019/01/16 at 19:50 UTC at LONDON CITY AIRP, UK (EGLC)

Sky conditions: few clouds.

Temperature: 7.0 Celsius.

Dewpoint: 4.0 Celsius.

Relative Humidity: 81%

Windchill Factor: 4.

Winds: Southwest at 15 km/h or 8 knots.

Mean Sea level Pressure: 100.30 kilopascals.

Horizontal visibility: 6.21 statute miles or 9.94 kilometers.

Coded METAR:

EGLC 161950Z AUTO 24008KT 9999 FEW021 07/04 Q1003=